Terminal Aerodrome Forecast
Issued by NWS

Current Version | Previous Version | Graphics & Text | Print | Product List | Glossary On
Versions: 1 2 3 4 5 6 7 8 9 10 11 12 13 14 15 16
856
FTUS41 KPBZ 091734 AAB
TAFMGW
TAF AMD
KMGW 091734Z 0918/1018 26008KT P6SM BKN020
     FM101500 25008KT P6SM BKN035=

USA.gov is the U.S. government's official web portal to all federal, state and local government web resources and services.